Terminal Aerodrome Forecast
Issued by NWS Grand Forks, ND

Home | Current Version | Previous Version | Graphics & Text | Print | Product List | Glossary On
Versions: 1 2 3 4 5 6 7 8 9 10 11 12 13 14 15 16 17 18 19
000
FTUS43 KFGF 270500
TAFFAR
TAF
KFAR 270522Z 2706/2806 28006KT P6SM SKC
     FM271100 16003KT P6SM SCT250
     FM280000 14010KT P6SM OVC100
     FM280300 15013KT P6SM -SN OVC035=

USA.gov is the U.S. government's official web portal to all federal, state and local government web resources and services.